sensor_id;sensor_type;location;lat;lon;timestamp;pressure;altitude;pressure_sealevel;temperature;humidity
75543;BME280;64129;53.508;10.476;2023-05-24T00:00:09;101449.88;;;9.94;67.96
75543;BME280;64129;53.508;10.476;2023-05-24T00:02:39;101456.88;;;10.01;67.40
75543;BME280;64129;53.508;10.476;2023-05-24T00:05:09;101449.88;;;9.94;67.09
75543;BME280;64129;53.508;10.476;2023-05-24T00:07:36;101449.03;;;9.90;67.62
75543;BME280;64129;53.508;10.476;2023-05-24T00:10:03;101453.28;;;10.10;67.03
75543;BME280;64129;53.508;10.476;2023-05-24T00:12:31;101455.09;;;10.01;66.96
75543;BME280;64129;53.508;10.476;2023-05-24T00:14:58;101453.28;;;10.08;67.90
75543;BME280;64129;53.508;10.476;2023-05-24T00:17:25;101454.16;;;10.10;67.87
75543;BME280;64129;53.508;10.476;2023-05-24T00:19:51;101448.97;;;9.95;67.53
75543;BME280;64129;53.508;10.476;2023-05-24T00:22:18;101443.78;;;9.84;68.37
75543;BME280;64129;53.508;10.476;2023-05-24T00:24:47;101453.38;;;9.96;68.18
75543;BME280;64129;53.508;10.476;2023-05-24T00:27:14;101449.03;;;9.89;68.20
75543;BME280;64129;53.508;10.476;2023-05-24T00:29:41;101447.19;;;9.97;68.24
75543;BME280;64129;53.508;10.476;2023-05-24T00:32:07;101446.31;;;9.95;68.82
75543;BME280;64129;53.508;10.476;2023-05-24T00:34:35;101445.50;;;9.88;68.72
75543;BME280;64129;53.508;10.476;2023-05-24T00:37:02;101435.75;;;9.92;68.65
75543;BME280;64129;53.508;10.476;2023-05-24T00:39:29;101432.94;;;10.07;69.40
75543;BME280;64129;53.508;10.476;2023-05-24T00:41:56;101432.16;;;9.96;68.28
75543;BME280;64129;53.508;10.476;2023-05-24T00:44:22;101424.28;;;9.88;69.62
75543;BME280;64129;53.508;10.476;2023-05-24T00:46:49;101433.06;;;9.93;69.17
75543;BME280;64129;53.508;10.476;2023-05-24T00:49:16;101432.34;;;9.78;69.43
75543;BME280;64129;53.508;10.476;2023-05-24T00:51:43;101428.59;;;9.97;68.94
75543;BME280;64129;53.508;10.476;2023-05-24T00:54:11;101432.06;;;10.05;69.73
75543;BME280;64129;53.508;10.476;2023-05-24T00:56:42;101427.63;;;10.06;69.43
75543;BME280;64129;53.508;10.476;2023-05-24T00:59:08;101437.69;;;9.75;70.54
75543;BME280;64129;53.508;10.476;2023-05-24T01:01:37;101431.31;;;9.91;70.13
75543;BME280;64129;53.508;10.476;2023-05-24T01:04:03;101433.88;;;10.01;69.94
75543;BME280;64129;53.508;10.476;2023-05-24T01:06:37;101427.84;;;9.87;70.20
75543;BME280;64129;53.508;10.476;2023-05-24T01:09:24;101433.94;;;9.94;70.69
75543;BME280;64129;53.508;10.476;2023-05-24T01:11:59;101435.81;;;9.86;70.64
75543;BME280;64129;53.508;10.476;2023-05-24T01:20:32;101432.00;;;10.13;69.87
75543;BME280;64129;53.508;10.476;2023-05-24T01:23:06;101439.28;;;9.91;70.84
75543;BME280;64129;53.508;10.476;2023-05-24T01:28:53;101435.59;;;10.07;70.77
75543;BME280;64129;53.508;10.476;2023-05-24T01:31:21;101434.75;;;10.00;71.25
75543;BME280;64129;53.508;10.476;2023-05-24T01:33:48;101439.16;;;10.06;71.31
75543;BME280;64129;53.508;10.476;2023-05-24T01:36:17;101436.53;;;10.00;71.38
75543;BME280;64129;53.508;10.476;2023-05-24T01:38:44;101432.97;;;10.02;72.10
75543;BME280;64129;53.508;10.476;2023-05-24T01:44:21;101427.88;;;9.84;73.04
75543;BME280;64129;53.508;10.476;2023-05-24T01:47:00;101426.16;;;9.79;72.55
75543;BME280;64129;53.508;10.476;2023-05-24T01:49:33;101430.53;;;9.83;73.85
75543;BME280;64129;53.508;10.476;2023-05-24T01:52:05;101424.34;;;9.84;72.25
75543;BME280;64129;53.508;10.476;2023-05-24T01:54:37;101430.50;;;9.86;72.96
75543;BME280;64129;53.508;10.476;2023-05-24T01:57:06;101426.81;;;9.99;72.97
75543;BME280;64129;53.508;10.476;2023-05-24T01:59:35;101421.56;;;9.93;72.84
75543;BME280;64129;53.508;10.476;2023-05-24T02:02:02;101419.00;;;9.87;72.90
75543;BME280;64129;53.508;10.476;2023-05-24T02:04:29;101420.69;;;9.94;72.69
75543;BME280;64129;53.508;10.476;2023-05-24T02:06:55;101419.69;;;10.04;72.83
75543;BME280;64129;53.508;10.476;2023-05-24T02:09:22;101415.47;;;9.85;73.23
75543;BME280;64129;53.508;10.476;2023-05-24T02:11:48;101417.09;;;9.98;73.25
75543;BME280;64129;53.508;10.476;2023-05-24T02:14:15;101419.75;;;9.98;73.18
75543;BME280;64129;53.508;10.476;2023-05-24T02:16:45;101414.31;;;10.13;71.95
75543;BME280;64129;53.508;10.476;2023-05-24T02:19:12;101418.97;;;9.90;73.42
75543;BME280;64129;53.508;10.476;2023-05-24T02:21:39;101410.88;;;10.02;72.71
75543;BME280;64129;53.508;10.476;2023-05-24T02:24:06;101418.00;;;9.97;73.61
75543;BME280;64129;53.508;10.476;2023-05-24T02:26:33;101412.69;;;9.97;73.28
75543;BME280;64129;53.508;10.476;2023-05-24T02:28:59;101415.34;;;9.97;72.58
75543;BME280;64129;53.508;10.476;2023-05-24T02:31:26;101411.81;;;9.95;73.27
75543;BME280;64129;53.508;10.476;2023-05-24T02:33:54;101405.66;;;9.93;73.36
75543;BME280;64129;53.508;10.476;2023-05-24T02:36:21;101405.72;;;9.87;74.07
75543;BME280;64129;53.508;10.476;2023-05-24T02:38:49;101404.00;;;9.83;73.89
75543;BME280;64129;53.508;10.476;2023-05-24T02:41:17;101401.22;;;9.95;73.60
75543;BME280;64129;53.508;10.476;2023-05-24T02:43:47;101401.25;;;9.90;73.25
75543;BME280;64129;53.508;10.476;2023-05-24T02:46:14;101402.97;;;9.96;74.23
75543;BME280;64129;53.508;10.476;2023-05-24T02:48:40;101396.78;;;9.97;73.44
75543;BME280;64129;53.508;10.476;2023-05-24T02:51:07;101391.50;;;9.94;74.22
75543;BME280;64129;53.508;10.476;2023-05-24T02:53:34;101382.63;;;9.95;73.25
75543;BME280;64129;53.508;10.476;2023-05-24T02:56:01;101391.47;;;9.97;73.72
75543;BME280;64129;53.508;10.476;2023-05-24T02:58:29;101389.78;;;9.90;74.84
75543;BME280;64129;53.508;10.476;2023-05-24T03:00:56;101393.25;;;9.95;74.79
75543;BME280;64129;53.508;10.476;2023-05-24T03:03:23;101390.56;;;9.98;74.13
75543;BME280;64129;53.508;10.476;2023-05-24T03:05:50;101396.94;;;9.82;74.26
75543;BME280;64129;53.508;10.476;2023-05-24T03:08:16;101389.69;;;9.96;74.40
75543;BME280;64129;53.508;10.476;2023-05-24T03:10:43;101384.44;;;9.93;74.18
75543;BME280;64129;53.508;10.476;2023-05-24T03:13:11;101375.75;;;9.79;75.40
75543;BME280;64129;53.508;10.476;2023-05-24T03:15:37;101383.66;;;9.82;74.84
75543;BME280;64129;53.508;10.476;2023-05-24T03:18:04;101381.00;;;9.83;74.86
75543;BME280;64129;53.508;10.476;2023-05-24T03:20:31;101387.91;;;9.98;74.54
75543;BME280;64129;53.508;10.476;2023-05-24T03:22:59;101386.16;;;9.97;74.73
75543;BME280;64129;53.508;10.476;2023-05-24T03:25:25;101387.91;;;9.98;75.37
75543;BME280;64129;53.508;10.476;2023-05-24T03:27:52;101387.97;;;9.93;75.36
75543;BME280;64129;53.508;10.476;2023-05-24T03:30:20;101388.06;;;9.86;75.94
75543;BME280;64129;53.508;10.476;2023-05-24T03:32:51;101391.41;;;10.01;74.95
75543;BME280;64129;53.508;10.476;2023-05-24T03:35:18;101389.56;;;10.11;74.52
75543;BME280;64129;53.508;10.476;2023-05-24T03:37:46;101394.06;;;10.01;75.92
75543;BME280;64129;53.508;10.476;2023-05-24T03:40:13;101399.34;;;10.06;75.05
75543;BME280;64129;53.508;10.476;2023-05-24T03:42:49;101396.69;;;10.03;75.48
75543;BME280;64129;53.508;10.476;2023-05-24T03:45:19;101403.78;;;10.02;75.19
75543;BME280;64129;53.508;10.476;2023-05-24T03:47:50;101409.06;;;10.04;75.70
75543;BME280;64129;53.508;10.476;2023-05-24T03:50:17;101418.63;;;10.25;74.33
75543;BME280;64129;53.508;10.476;2023-05-24T03:52:43;101410.81;;;10.08;75.92
75543;BME280;64129;53.508;10.476;2023-05-24T03:55:10;101417.88;;;10.09;75.93
75543;BME280;64129;53.508;10.476;2023-05-24T03:57:37;101414.34;;;10.10;75.92
75543;BME280;64129;53.508;10.476;2023-05-24T04:00:03;101415.19;;;10.14;76.18
75543;BME280;64129;53.508;10.476;2023-05-24T04:02:39;101412.47;;;10.21;76.06
75543;BME280;64129;53.508;10.476;2023-05-24T04:05:06;101413.28;;;10.28;74.32
75543;BME280;64129;53.508;10.476;2023-05-24T04:07:36;101408.84;;;10.28;74.54
75543;BME280;64129;53.508;10.476;2023-05-24T04:10:04;101409.78;;;10.20;76.43
75543;BME280;64129;53.508;10.476;2023-05-24T04:12:31;101419.47;;;10.28;75.75
75543;BME280;64129;53.508;10.476;2023-05-24T04:14:58;101426.56;;;10.26;75.04
75543;BME280;64129;53.508;10.476;2023-05-24T04:17:26;101430.13;;;10.25;76.57
75543;BME280;64129;53.508;10.476;2023-05-24T04:19:54;101432.72;;;10.30;75.75
75543;BME280;64129;53.508;10.476;2023-05-24T04:22:21;101429.97;;;10.41;74.44
75543;BME280;64129;53.508;10.476;2023-05-24T04:24:49;101438.81;;;10.37;76.25
75543;BME280;64129;53.508;10.476;2023-05-24T04:27:15;101437.16;;;10.29;76.48
75543;BME280;64129;53.508;10.476;2023-05-24T04:29:44;101436.19;;;10.35;75.89
75543;BME280;64129;53.508;10.476;2023-05-24T04:32:15;101437.19;;;10.26;76.67
75543;BME280;64129;53.508;10.476;2023-05-24T04:34:44;101447.84;;;10.23;76.73
75543;BME280;64129;53.508;10.476;2023-05-24T04:37:12;101446.09;;;10.22;77.32
75543;BME280;64129;53.508;10.476;2023-05-24T04:39:44;101451.03;;;10.53;76.34
75543;BME280;64129;53.508;10.476;2023-05-24T04:42:11;101444.94;;;10.46;76.91
75543;BME280;64129;53.508;10.476;2023-05-24T04:44:41;101457.41;;;10.38;77.00
75543;BME280;64129;53.508;10.476;2023-05-24T04:47:08;101468.69;;;10.57;75.87
75543;BME280;64129;53.508;10.476;2023-05-24T04:49:35;101461.78;;;10.44;77.13
75543;BME280;64129;53.508;10.476;2023-05-24T04:52:03;101463.31;;;10.63;76.21
75543;BME280;64129;53.508;10.476;2023-05-24T04:54:29;101467.91;;;10.49;77.63
75543;BME280;64129;53.508;10.476;2023-05-24T04:56:56;101465.09;;;10.61;76.68
75543;BME280;64129;53.508;10.476;2023-05-24T04:59:23;101465.22;;;10.52;77.16
75543;BME280;64129;53.508;10.476;2023-05-24T05:01:50;101468.75;;;10.54;77.50
75543;BME280;64129;53.508;10.476;2023-05-24T05:04:16;101468.69;;;10.57;77.62
75543;BME280;64129;53.508;10.476;2023-05-24T05:06:43;101464.31;;;10.54;77.36
75543;BME280;64129;53.508;10.476;2023-05-24T05:09:10;101471.34;;;10.57;77.50
75543;BME280;64129;53.508;10.476;2023-05-24T05:11:39;101465.06;;;10.64;77.07
75543;BME280;64129;53.508;10.476;2023-05-24T05:14:06;101470.47;;;10.58;77.43
75543;BME280;64129;53.508;10.476;2023-05-24T05:16:35;101472.97;;;10.70;76.89
75543;BME280;64129;53.508;10.476;2023-05-24T05:19:02;101475.63;;;10.70;77.17
75543;BME280;64129;53.508;10.476;2023-05-24T05:21:30;101472.22;;;10.59;77.63
75543;BME280;64129;53.508;10.476;2023-05-24T05:23:59;101466.66;;;10.80;77.06
75543;BME280;64129;53.508;10.476;2023-05-24T05:26:26;101475.44;;;10.85;77.06
75543;BME280;64129;53.508;10.476;2023-05-24T05:28:53;101472.03;;;10.74;77.03
75543;BME280;64129;53.508;10.476;2023-05-24T05:31:20;101469.41;;;10.71;77.00
75543;BME280;64129;53.508;10.476;2023-05-24T05:33:48;101470.25;;;10.75;77.24
75543;BME280;64129;53.508;10.476;2023-05-24T05:36:15;101473.78;;;10.78;77.43
75543;BME280;64129;53.508;10.476;2023-05-24T05:38:42;101469.94;;;10.98;75.87
75543;BME280;64129;53.508;10.476;2023-05-24T05:41:08;101472.78;;;10.85;76.54
75543;BME280;64129;53.508;10.476;2023-05-24T05:43:35;101468.25;;;10.93;77.44
75543;BME280;64129;53.508;10.476;2023-05-24T05:46:02;101474.63;;;10.80;76.80
75543;BME280;64129;53.508;10.476;2023-05-24T05:48:29;101485.09;;;10.92;76.78
75543;BME280;64129;53.508;10.476;2023-05-24T05:50:58;101485.81;;;11.04;77.13
75543;BME280;64129;53.508;10.476;2023-05-24T05:53:25;101484.28;;;10.87;77.54
75543;BME280;64129;53.508;10.476;2023-05-24T05:55:51;101485.94;;;10.94;77.79
75543;BME280;64129;53.508;10.476;2023-05-24T05:58:18;101492.94;;;11.02;77.42
75543;BME280;64129;53.508;10.476;2023-05-24T06:00:44;101493.84;;;11.01;78.53
75543;BME280;64129;53.508;10.476;2023-05-24T06:03:11;101490.88;;;11.22;76.83
75543;BME280;64129;53.508;10.476;2023-05-24T06:05:38;101493.66;;;11.14;77.84
75543;BME280;64129;53.508;10.476;2023-05-24T06:08:04;101486.38;;;11.27;76.67
75543;BME280;64129;53.508;10.476;2023-05-24T06:10:31;101494.13;;;11.42;76.88
75543;BME280;64129;53.508;10.476;2023-05-24T06:12:57;101495.94;;;11.40;76.78
75543;BME280;64129;53.508;10.476;2023-05-24T06:15:24;101494.97;;;11.47;76.92
75543;BME280;64129;53.508;10.476;2023-05-24T06:17:51;101493.06;;;11.55;75.06
75543;BME280;64129;53.508;10.476;2023-05-24T06:20:19;101502.84;;;11.53;76.10
75543;BME280;64129;53.508;10.476;2023-05-24T06:22:45;101511.69;;;11.54;76.70
75543;BME280;64129;53.508;10.476;2023-05-24T06:25:14;101515.28;;;11.51;76.66
75543;BME280;64129;53.508;10.476;2023-05-24T06:27:44;101518.81;;;11.53;76.43
75543;BME280;64129;53.508;10.476;2023-05-24T06:30:12;101516.31;;;11.41;75.83
75543;BME280;64129;53.508;10.476;2023-05-24T06:32:39;101529.53;;;11.47;76.32
75543;BME280;64129;53.508;10.476;2023-05-24T06:35:06;101519.81;;;11.45;76.83
75543;BME280;64129;53.508;10.476;2023-05-24T06:37:33;101526.03;;;11.45;76.75
75543;BME280;64129;53.508;10.476;2023-05-24T06:40:00;101533.97;;;11.48;77.31
75543;BME280;64129;53.508;10.476;2023-05-24T06:42:26;101532.28;;;11.40;78.53
75543;BME280;64129;53.508;10.476;2023-05-24T06:44:53;101533.13;;;11.45;78.48
75543;BME280;64129;53.508;10.476;2023-05-24T06:47:21;101532.91;;;11.59;77.90
75543;BME280;64129;53.508;10.476;2023-05-24T06:49:47;101542.84;;;11.44;78.67
75543;BME280;64129;53.508;10.476;2023-05-24T06:52:15;101540.25;;;11.40;79.05
75543;BME280;64129;53.508;10.476;2023-05-24T06:54:42;101547.94;;;11.63;77.81
75543;BME280;64129;53.508;10.476;2023-05-24T06:57:08;101552.47;;;11.54;77.55
75543;BME280;64129;53.508;10.476;2023-05-24T06:59:35;101554.38;;;11.46;77.55
75543;BME280;64129;53.508;10.476;2023-05-24T07:02:02;101567.81;;;11.34;77.57
75543;BME280;64129;53.508;10.476;2023-05-24T07:04:29;101565.03;;;11.43;77.22
75543;BME280;64129;53.508;10.476;2023-05-24T07:06:56;101559.69;;;11.46;77.35
75543;BME280;64129;53.508;10.476;2023-05-24T07:09:23;101573.03;;;11.45;77.97
75543;BME280;64129;53.508;10.476;2023-05-24T07:11:50;101568.56;;;11.47;78.80
75543;BME280;64129;53.508;10.476;2023-05-24T07:14:16;101567.75;;;11.39;77.62
75543;BME280;64129;53.508;10.476;2023-05-24T07:16:43;101572.28;;;11.32;77.45
75543;BME280;64129;53.508;10.476;2023-05-24T07:19:09;101579.88;;;11.61;77.65
75543;BME280;64129;53.508;10.476;2023-05-24T07:21:36;101565.56;;;11.70;77.34
75543;BME280;64129;53.508;10.476;2023-05-24T07:24:03;101575.44;;;11.62;77.08
75543;BME280;64129;53.508;10.476;2023-05-24T07:26:30;101578.84;;;11.70;76.79
75543;BME280;64129;53.508;10.476;2023-05-24T07:28:56;101573.44;;;11.76;77.69
75543;BME280;64129;53.508;10.476;2023-05-24T07:31:23;101576.25;;;11.65;77.98
75543;BME280;64129;53.508;10.476;2023-05-24T07:33:50;101579.78;;;11.67;77.73
75543;BME280;64129;53.508;10.476;2023-05-24T07:36:17;101579.72;;;11.70;78.33
75543;BME280;64129;53.508;10.476;2023-05-24T07:38:43;101579.75;;;11.69;78.40
75543;BME280;64129;53.508;10.476;2023-05-24T07:41:12;101584.94;;;11.82;78.23
75543;BME280;64129;53.508;10.476;2023-05-24T07:43:39;101581.16;;;11.96;77.72
75543;BME280;64129;53.508;10.476;2023-05-24T07:46:05;101589.03;;;12.03;77.82
75543;BME280;64129;53.508;10.476;2023-05-24T07:48:32;101587.63;;;11.78;78.07
75543;BME280;64129;53.508;10.476;2023-05-24T07:50:58;101594.81;;;11.70;78.21
75543;BME280;64129;53.508;10.476;2023-05-24T07:53:25;101596.53;;;11.74;78.14
75543;BME280;64129;53.508;10.476;2023-05-24T07:55:51;101598.50;;;11.61;78.52
75543;BME280;64129;53.508;10.476;2023-05-24T07:58:18;101595.56;;;11.84;78.40
75543;BME280;64129;53.508;10.476;2023-05-24T08:00:44;101591.31;;;11.68;79.57
75543;BME280;64129;53.508;10.476;2023-05-24T08:03:12;101591.25;;;11.71;78.82
75543;BME280;64129;53.508;10.476;2023-05-24T08:05:39;101603.59;;;11.78;79.41
75543;BME280;64129;53.508;10.476;2023-05-24T08:08:06;101597.16;;;11.94;78.49
75543;BME280;64129;53.508;10.476;2023-05-24T08:10:33;101601.63;;;11.92;78.81
75543;BME280;64129;53.508;10.476;2023-05-24T08:12:59;101601.25;;;12.16;77.27
75543;BME280;64129;53.508;10.476;2023-05-24T08:15:26;101595.59;;;12.35;78.22
75543;BME280;64129;53.508;10.476;2023-05-24T08:17:53;101600.81;;;12.41;75.21
75543;BME280;64129;53.508;10.476;2023-05-24T08:20:19;101598.94;;;12.46;77.15
75543;BME280;64129;53.508;10.476;2023-05-24T08:22:46;101602.34;;;12.02;76.75
75543;BME280;64129;53.508;10.476;2023-05-24T08:25:15;101606.03;;;12.47;76.26
75543;BME280;64129;53.508;10.476;2023-05-24T08:27:42;101610.28;;;12.59;76.03
75543;BME280;64129;53.508;10.476;2023-05-24T08:30:09;101616.84;;;12.38;76.06
75543;BME280;64129;53.508;10.476;2023-05-24T08:32:36;101614.75;;;12.58;74.83
75543;BME280;64129;53.508;10.476;2023-05-24T08:35:03;101616.63;;;12.53;74.10
75543;BME280;64129;53.508;10.476;2023-05-24T08:37:43;101626.50;;;12.45;75.33
75543;BME280;64129;53.508;10.476;2023-05-24T08:40:10;101618.19;;;12.63;74.66
75543;BME280;64129;53.508;10.476;2023-05-24T08:42:37;101633.69;;;12.40;75.23
75543;BME280;64129;53.508;10.476;2023-05-24T08:45:10;101628.69;;;12.72;74.87
75543;BME280;64129;53.508;10.476;2023-05-24T08:47:37;101623.66;;;12.57;74.97
75543;BME280;64129;53.508;10.476;2023-05-24T08:50:05;101624.44;;;12.62;75.52
75543;BME280;64129;53.508;10.476;2023-05-24T08:52:32;101638.91;;;12.49;74.80
75543;BME280;64129;53.508;10.476;2023-05-24T08:54:59;101621.84;;;12.59;75.50
75543;BME280;64129;53.508;10.476;2023-05-24T08:57:26;101636.94;;;12.59;75.26
75543;BME280;64129;53.508;10.476;2023-05-24T08:59:53;101636.66;;;12.74;75.02
75543;BME280;64129;53.508;10.476;2023-05-24T09:02:22;101635.84;;;12.70;74.52
75543;BME280;64129;53.508;10.476;2023-05-24T09:04:51;101641.63;;;12.94;74.32
75543;BME280;64129;53.508;10.476;2023-05-24T09:07:20;101646.50;;;13.18;72.26
75543;BME280;64129;53.508;10.476;2023-05-24T09:10:03;101645.63;;;13.19;74.00
75543;BME280;64129;53.508;10.476;2023-05-24T09:12:31;101653.03;;;13.02;73.20
75543;BME280;64129;53.508;10.476;2023-05-24T09:15:04;101649.09;;;13.24;71.45
75543;BME280;64129;53.508;10.476;2023-05-24T09:17:31;101652.28;;;13.41;71.20
75543;BME280;64129;53.508;10.476;2023-05-24T09:19:58;101653.38;;;13.31;72.34
75543;BME280;64129;53.508;10.476;2023-05-24T09:22:27;101652.31;;;13.40;70.90
75543;BME280;64129;53.508;10.476;2023-05-24T09:24:59;101655.00;;;13.80;69.59
75543;BME280;64129;53.508;10.476;2023-05-24T09:27:27;101653.28;;;13.78;68.73
75543;BME280;64129;53.508;10.476;2023-05-24T09:29:54;101649.28;;;13.97;69.03
75543;BME280;64129;53.508;10.476;2023-05-24T09:32:21;101644.59;;;13.68;68.02
75543;BME280;64129;53.508;10.476;2023-05-24T09:34:52;101654.53;;;14.01;68.51
75543;BME280;64129;53.508;10.476;2023-05-24T09:37:21;101649.03;;;13.69;66.38
75543;BME280;64129;53.508;10.476;2023-05-24T09:39:52;101649.94;;;14.07;67.95
75543;BME280;64129;53.508;10.476;2023-05-24T09:42:22;101654.84;;;13.86;67.70
75543;BME280;64129;53.508;10.476;2023-05-24T09:45:03;101656.91;;;14.14;68.08
75543;BME280;64129;53.508;10.476;2023-05-24T09:47:32;101658.19;;;14.34;67.95
75543;BME280;64129;53.508;10.476;2023-05-24T09:50:00;101665.47;;;14.28;66.19
75543;BME280;64129;53.508;10.476;2023-05-24T09:52:27;101662.31;;;14.11;66.57
75543;BME280;64129;53.508;10.476;2023-05-24T09:54:54;101668.16;;;14.28;65.72
75543;BME280;64129;53.508;10.476;2023-05-24T09:57:20;101666.50;;;14.22;66.31
75543;BME280;64129;53.508;10.476;2023-05-24T09:59:48;101668.28;;;14.22;66.61
75543;BME280;64129;53.508;10.476;2023-05-24T10:02:15;101670.25;;;14.14;67.99
75543;BME280;64129;53.508;10.476;2023-05-24T10:04:45;101665.97;;;14.07;69.04
75543;BME280;64129;53.508;10.476;2023-05-24T10:07:12;101671.03;;;13.80;68.32
75543;BME280;64129;53.508;10.476;2023-05-24T10:09:41;101676.22;;;13.86;69.83
75543;BME280;64129;53.508;10.476;2023-05-24T10:12:07;101672.16;;;14.09;68.60
75543;BME280;64129;53.508;10.476;2023-05-24T10:14:35;101676.69;;;14.05;68.30
75543;BME280;64129;53.508;10.476;2023-05-24T10:17:03;101671.41;;;14.03;68.20
75543;BME280;64129;53.508;10.476;2023-05-24T10:19:34;101669.88;;;13.92;69.08
75543;BME280;64129;53.508;10.476;2023-05-24T10:22:05;101674.56;;;14.19;68.58
75543;BME280;64129;53.508;10.476;2023-05-24T10:24:37;101667.19;;;14.30;68.14
75543;BME280;64129;53.508;10.476;2023-05-24T10:27:08;101673.78;;;14.16;65.46
75543;BME280;64129;53.508;10.476;2023-05-24T10:29:46;101681.78;;;14.16;66.12
75543;BME280;64129;53.508;10.476;2023-05-24T10:32:15;101675.97;;;14.35;67.51
75543;BME280;64129;53.508;10.476;2023-05-24T10:34:44;101673.16;;;14.43;66.19
75543;BME280;64129;53.508;10.476;2023-05-24T10:37:12;101678.63;;;14.37;65.95
75543;BME280;64129;53.508;10.476;2023-05-24T10:39:40;101678.19;;;14.55;65.30
75543;BME280;64129;53.508;10.476;2023-05-24T10:42:07;101688.03;;;14.89;65.00
75543;BME280;64129;53.508;10.476;2023-05-24T10:44:35;101685.00;;;14.69;62.73
75543;BME280;64129;53.508;10.476;2023-05-24T10:49:49;101679.09;;;15.22;61.99
75543;BME280;64129;53.508;10.476;2023-05-24T10:52:19;101673.53;;;14.97;63.22
75543;BME280;64129;53.508;10.476;2023-05-24T10:55:05;101678.69;;;15.05;63.14
75543;BME280;64129;53.508;10.476;2023-05-24T10:57:35;101682.53;;;14.95;63.31
75543;BME280;64129;53.508;10.476;2023-05-24T11:03:06;101680.09;;;15.18;63.28
75543;BME280;64129;53.508;10.476;2023-05-24T11:11:01;101679.59;;;15.37;62.40
75543;BME280;64129;53.508;10.476;2023-05-24T11:13:37;101676.63;;;15.78;62.82
75543;BME280;64129;53.508;10.476;2023-05-24T11:16:05;101682.94;;;15.76;59.85
75543;BME280;64129;53.508;10.476;2023-05-24T11:18:32;101679.66;;;15.96;61.29
75543;BME280;64129;53.508;10.476;2023-05-24T11:21:04;101677.25;;;15.86;58.80
75543;BME280;64129;53.508;10.476;2023-05-24T11:23:31;101670.72;;;15.97;59.08
75543;BME280;64129;53.508;10.476;2023-05-24T11:25:58;101675.09;;;16.27;59.48
75543;BME280;64129;53.508;10.476;2023-05-24T11:28:25;101669.78;;;16.26;59.14
75543;BME280;64129;53.508;10.476;2023-05-24T11:30:52;101668.16;;;16.20;55.44
75543;BME280;64129;53.508;10.476;2023-05-24T11:33:22;101670.28;;;16.38;57.17
75543;BME280;64129;53.508;10.476;2023-05-24T11:35:50;101671.41;;;16.31;58.42
75543;BME280;64129;53.508;10.476;2023-05-24T11:38:18;101670.53;;;16.29;57.82
75543;BME280;64129;53.508;10.476;2023-05-24T11:40:48;101670.81;;;15.92;59.06
75543;BME280;64129;53.508;10.476;2023-05-24T11:43:16;101681.38;;;15.98;58.95
75543;BME280;64129;53.508;10.476;2023-05-24T11:45:45;101676.63;;;15.78;59.14
75543;BME280;64129;53.508;10.476;2023-05-24T11:48:14;101687.56;;;16.00;58.76
75543;BME280;64129;53.508;10.476;2023-05-24T11:50:45;101687.25;;;15.81;59.69
75543;BME280;64129;53.508;10.476;2023-05-24T11:53:17;101681.59;;;15.90;60.63
75543;BME280;64129;53.508;10.476;2023-05-24T11:55:45;101686.66;;;15.72;61.29
75543;BME280;64129;53.508;10.476;2023-05-24T11:58:34;101687.03;;;15.87;61.12
75543;BME280;64129;53.508;10.476;2023-05-24T12:01:24;101688.34;;;15.74;61.13
75543;BME280;64129;53.508;10.476;2023-05-24T12:03:51;101694.03;;;16.21;61.13
75543;BME280;64129;53.508;10.476;2023-05-24T12:06:19;101687.03;;;15.87;58.08
75543;BME280;64129;53.508;10.476;2023-05-24T12:08:46;101696.66;;;15.65;58.13
75543;BME280;64129;53.508;10.476;2023-05-24T12:11:13;101699.59;;;16.15;57.90
75543;BME280;64129;53.508;10.476;2023-05-24T12:13:41;101702.91;;;16.79;58.28
75543;BME280;64129;53.508;10.476;2023-05-24T12:16:10;101702.59;;;16.88;57.40
75543;BME280;64129;53.508;10.476;2023-05-24T12:18:38;101701.78;;;16.86;56.52
75543;BME280;64129;53.508;10.476;2023-05-24T12:21:10;101704.44;;;16.86;56.76
75543;BME280;64129;53.508;10.476;2023-05-24T12:23:39;101711.56;;;16.87;57.99
75543;BME280;64129;53.508;10.476;2023-05-24T12:26:05;101702.59;;;16.60;56.88
75543;BME280;64129;53.508;10.476;2023-05-24T12:28:36;101701.97;;;16.80;57.79
75543;BME280;64129;53.508;10.476;2023-05-24T12:31:05;101706.69;;;16.73;57.17
75543;BME280;64129;53.508;10.476;2023-05-24T12:33:32;101711.84;;;16.79;56.83
75543;BME280;64129;53.508;10.476;2023-05-24T12:35:59;101709.16;;;17.06;54.71
75543;BME280;64129;53.508;10.476;2023-05-24T12:38:26;101705.97;;;17.20;56.54
75543;BME280;64129;53.508;10.476;2023-05-24T12:40:53;101703.09;;;16.99;54.47
75543;BME280;64129;53.508;10.476;2023-05-24T12:43:33;101709.66;;;16.63;55.24
75543;BME280;64129;53.508;10.476;2023-05-24T12:46:00;101704.66;;;17.06;54.96
75543;BME280;64129;53.508;10.476;2023-05-24T12:48:27;101707.22;;;17.34;54.09
75543;BME280;64129;53.508;10.476;2023-05-24T12:50:54;101708.47;;;17.24;54.33
75543;BME280;64129;53.508;10.476;2023-05-24T12:53:20;101711.63;;;17.12;55.40
75543;BME280;64129;53.508;10.476;2023-05-24T12:55:50;101705.44;;;17.35;55.00
75543;BME280;64129;53.508;10.476;2023-05-24T12:58:21;101700.59;;;17.20;56.24
75543;BME280;64129;53.508;10.476;2023-05-24T13:00:47;101707.34;;;16.80;55.55
75543;BME280;64129;53.508;10.476;2023-05-24T13:03:17;101710.97;;;16.79;56.35
75543;BME280;64129;53.508;10.476;2023-05-24T13:05:43;101712.63;;;16.55;56.05
75543;BME280;64129;53.508;10.476;2023-05-24T13:08:11;101709.00;;;16.84;55.95
75543;BME280;64129;53.508;10.476;2023-05-24T13:10:39;101709.00;;;16.84;56.38